Kezdőlap
METAR-TAF:

METAR-TAF

Repülőterek :

Savonlinna, Finnország

földrajzi szélesség: 61-57N, földrajzi hosszúság: 028-57E, magasság: 95 m

Jelenlegi meteorológiai megfigyelések

A jelentés 20 perccel ezelõtt készült, 13:20 UTC
Dél-délkeleti szél 8 kt, kelet-délkeleti és dél-délnyugati között változik
Hőmérséklet 22°C
Páratartalom 50%
Légköri nyomás 1016 hPa
Látótávolság 10 km, vagy több
felhőtlen 1500 m magasságban, és nincs gomolyfelhõ

METAR: EFSA 171320Z AUTO 16008KT 110V210 CAVOK 22/11 Q1016

Idő: 16:40 (13:40 UTC)


TAF: hiányzik

Meteorológiai megfigyelések és előrejelzések több, mint 4000 repülőtéren (METAR és TAF jelentéseket).

A térképen piros és sárga pontok jelzik az elérhető meteorológiai állomásokat.

Mozgassa az egeret a pont fölött, hogy megjelenjen az állomás neve.

Azután kattintson az időjárási megfigyelések és előrejelzések megtekintéséhez.

A térkép megváltoztatása: kattintson a fekete keresztel jelölt zöld gombra ráközelítéshez, a vonallal jelölt zöld gombra távolításhoz, vagy a zöld nyilakra a szomszédos térképek eléréséhez.


METAR-TAF: